sensor_id;sensor_type;location;lat;lon;timestamp;P1;durP1;ratioP1;P2;durP2;ratioP2
54408;SDS011;40315;48.620;9.828;2022-11-10T00:00:42;4.50;;;4.10;;
54408;SDS011;40315;48.620;9.828;2022-11-10T00:03:28;4.88;;;3.95;;
54408;SDS011;40315;48.620;9.828;2022-11-10T00:06:13;6.00;;;4.18;;
54408;SDS011;40315;48.620;9.828;2022-11-10T00:08:59;4.93;;;4.43;;
54408;SDS011;40315;48.620;9.828;2022-11-10T00:11:44;5.10;;;4.55;;
54408;SDS011;40315;48.620;9.828;2022-11-10T00:14:30;5.38;;;4.57;;
54408;SDS011;40315;48.620;9.828;2022-11-10T00:17:35;6.15;;;5.22;;
54408;SDS011;40315;48.620;9.828;2022-11-10T00:20:20;6.72;;;5.57;;
54408;SDS011;40315;48.620;9.828;2022-11-10T00:23:06;7.20;;;5.43;;
54408;SDS011;40315;48.620;9.828;2022-11-10T00:25:52;8.13;;;5.78;;
54408;SDS011;40315;48.620;9.828;2022-11-10T00:28:37;5.13;;;4.40;;
54408;SDS011;40315;48.620;9.828;2022-11-10T00:31:23;4.85;;;3.38;;
54408;SDS011;40315;48.620;9.828;2022-11-10T00:34:13;3.53;;;3.10;;
54408;SDS011;40315;48.620;9.828;2022-11-10T00:36:59;4.50;;;3.38;;
54408;SDS011;40315;48.620;9.828;2022-11-10T00:39:45;3.67;;;2.70;;
54408;SDS011;40315;48.620;9.828;2022-11-10T00:42:30;2.78;;;2.03;;
54408;SDS011;40315;48.620;9.828;2022-11-10T00:45:16;2.25;;;1.60;;
54408;SDS011;40315;48.620;9.828;2022-11-10T00:48:02;1.98;;;1.30;;
54408;SDS011;40315;48.620;9.828;2022-11-10T00:50:49;1.90;;;1.60;;
54408;SDS011;40315;48.620;9.828;2022-11-10T00:53:35;1.90;;;1.48;;
54408;SDS011;40315;48.620;9.828;2022-11-10T00:56:20;2.85;;;1.33;;
54408;SDS011;40315;48.620;9.828;2022-11-10T00:59:06;3.17;;;1.30;;
54408;SDS011;40315;48.620;9.828;2022-11-10T01:01:52;2.92;;;1.38;;
54408;SDS011;40315;48.620;9.828;2022-11-10T01:04:37;2.55;;;1.40;;
54408;SDS011;40315;48.620;9.828;2022-11-10T01:07:24;3.40;;;1.45;;
54408;SDS011;40315;48.620;9.828;2022-11-10T01:10:10;3.33;;;1.88;;
54408;SDS011;40315;48.620;9.828;2022-11-10T01:12:55;2.25;;;1.40;;
54408;SDS011;40315;48.620;9.828;2022-11-10T01:15:41;4.32;;;1.25;;
54408;SDS011;40315;48.620;9.828;2022-11-10T01:18:27;2.65;;;1.30;;
54408;SDS011;40315;48.620;9.828;2022-11-10T01:21:12;1.92;;;1.40;;
54408;SDS011;40315;48.620;9.828;2022-11-10T01:24:00;3.22;;;1.63;;
54408;SDS011;40315;48.620;9.828;2022-11-10T01:26:45;3.28;;;1.55;;
54408;SDS011;40315;48.620;9.828;2022-11-10T01:29:31;4.90;;;2.00;;
54408;SDS011;40315;48.620;9.828;2022-11-10T01:32:16;2.78;;;1.80;;
54408;SDS011;40315;48.620;9.828;2022-11-10T01:35:03;3.55;;;1.85;;
54408;SDS011;40315;48.620;9.828;2022-11-10T01:37:50;4.47;;;2.10;;
54408;SDS011;40315;48.620;9.828;2022-11-10T01:40:37;3.20;;;2.15;;
54408;SDS011;40315;48.620;9.828;2022-11-10T01:46:44;4.43;;;3.08;;
54408;SDS011;40315;48.620;9.828;2022-11-10T01:49:31;3.65;;;2.90;;
54408;SDS011;40315;48.620;9.828;2022-11-10T01:52:18;3.90;;;3.53;;
54408;SDS011;40315;48.620;9.828;2022-11-10T01:55:04;3.85;;;3.40;;
54408;SDS011;40315;48.620;9.828;2022-11-10T01:57:52;4.40;;;4.00;;
54408;SDS011;40315;48.620;9.828;2022-11-10T02:03:25;4.85;;;4.20;;
54408;SDS011;40315;48.620;9.828;2022-11-10T02:06:16;4.25;;;3.70;;
54408;SDS011;40315;48.620;9.828;2022-11-10T02:09:04;7.80;;;5.38;;
54408;SDS011;40315;48.620;9.828;2022-11-10T02:11:50;6.47;;;4.88;;
54408;SDS011;40315;48.620;9.828;2022-11-10T02:14:39;6.55;;;5.72;;
54408;SDS011;40315;48.620;9.828;2022-11-10T02:17:24;9.00;;;6.40;;
54408;SDS011;40315;48.620;9.828;2022-11-10T02:20:11;9.30;;;6.50;;
54408;SDS011;40315;48.620;9.828;2022-11-10T02:23:09;8.35;;;7.28;;
54408;SDS011;40315;48.620;9.828;2022-11-10T02:25:56;9.40;;;6.40;;
54408;SDS011;40315;48.620;9.828;2022-11-10T02:28:42;6.38;;;5.35;;
54408;SDS011;40315;48.620;9.828;2022-11-10T02:31:27;6.72;;;6.03;;
54408;SDS011;40315;48.620;9.828;2022-11-10T02:34:13;10.50;;;6.68;;
54408;SDS011;40315;48.620;9.828;2022-11-10T02:36:58;7.53;;;5.75;;
54408;SDS011;40315;48.620;9.828;2022-11-10T02:39:45;9.95;;;7.43;;
54408;SDS011;40315;48.620;9.828;2022-11-10T02:42:31;9.35;;;7.85;;
54408;SDS011;40315;48.620;9.828;2022-11-10T02:45:16;8.15;;;6.63;;
54408;SDS011;40315;48.620;9.828;2022-11-10T02:48:02;9.38;;;7.30;;
54408;SDS011;40315;48.620;9.828;2022-11-10T02:50:48;10.23;;;7.75;;
54408;SDS011;40315;48.620;9.828;2022-11-10T02:53:34;10.13;;;7.22;;
54408;SDS011;40315;48.620;9.828;2022-11-10T02:56:20;8.90;;;7.05;;
54408;SDS011;40315;48.620;9.828;2022-11-10T02:59:06;10.75;;;7.25;;
54408;SDS011;40315;48.620;9.828;2022-11-10T03:01:52;9.20;;;6.93;;
54408;SDS011;40315;48.620;9.828;2022-11-10T03:04:37;9.48;;;6.97;;
54408;SDS011;40315;48.620;9.828;2022-11-10T03:07:23;11.32;;;6.53;;
54408;SDS011;40315;48.620;9.828;2022-11-10T03:10:09;9.90;;;6.30;;
54408;SDS011;40315;48.620;9.828;2022-11-10T03:12:56;7.07;;;5.82;;
54408;SDS011;40315;48.620;9.828;2022-11-10T03:15:43;8.50;;;5.80;;
54408;SDS011;40315;48.620;9.828;2022-11-10T03:18:30;8.82;;;5.75;;
54408;SDS011;40315;48.620;9.828;2022-11-10T03:21:16;12.20;;;5.45;;
54408;SDS011;40315;48.620;9.828;2022-11-10T03:24:02;7.85;;;5.40;;
54408;SDS011;40315;48.620;9.828;2022-11-10T03:26:48;8.30;;;5.10;;
54408;SDS011;40315;48.620;9.828;2022-11-10T03:29:35;10.93;;;5.10;;
54408;SDS011;40315;48.620;9.828;2022-11-10T03:32:21;10.32;;;5.43;;
54408;SDS011;40315;48.620;9.828;2022-11-10T03:35:07;7.50;;;4.63;;
54408;SDS011;40315;48.620;9.828;2022-11-10T03:37:53;7.07;;;4.53;;
54408;SDS011;40315;48.620;9.828;2022-11-10T03:40:38;8.25;;;4.57;;
54408;SDS011;40315;48.620;9.828;2022-11-10T03:43:24;8.98;;;4.65;;
54408;SDS011;40315;48.620;9.828;2022-11-10T03:46:11;8.75;;;4.30;;
54408;SDS011;40315;48.620;9.828;2022-11-10T03:48:56;6.63;;;3.83;;
54408;SDS011;40315;48.620;9.828;2022-11-10T03:51:42;6.85;;;3.90;;
54408;SDS011;40315;48.620;9.828;2022-11-10T03:54:27;7.00;;;3.80;;
54408;SDS011;40315;48.620;9.828;2022-11-10T03:57:13;7.47;;;3.97;;
54408;SDS011;40315;48.620;9.828;2022-11-10T03:59:59;4.82;;;3.88;;
54408;SDS011;40315;48.620;9.828;2022-11-10T04:02:46;5.35;;;4.20;;
54408;SDS011;40315;48.620;9.828;2022-11-10T04:05:31;6.55;;;3.70;;
54408;SDS011;40315;48.620;9.828;2022-11-10T04:08:34;6.93;;;4.38;;
54408;SDS011;40315;48.620;9.828;2022-11-10T04:11:38;7.57;;;4.60;;
54408;SDS011;40315;48.620;9.828;2022-11-10T04:14:41;7.55;;;4.53;;
54408;SDS011;40315;48.620;9.828;2022-11-10T04:17:51;7.53;;;4.68;;
54408;SDS011;40315;48.620;9.828;2022-11-10T04:20:36;5.70;;;4.20;;
54408;SDS011;40315;48.620;9.828;2022-11-10T04:23:22;5.88;;;4.30;;
54408;SDS011;40315;48.620;9.828;2022-11-10T04:26:13;8.27;;;4.22;;
54408;SDS011;40315;48.620;9.828;2022-11-10T04:29:18;6.10;;;4.22;;
54408;SDS011;40315;48.620;9.828;2022-11-10T04:32:04;9.10;;;4.57;;
54408;SDS011;40315;48.620;9.828;2022-11-10T04:34:51;5.88;;;3.60;;
54408;SDS011;40315;48.620;9.828;2022-11-10T04:37:36;9.38;;;4.07;;
54408;SDS011;40315;48.620;9.828;2022-11-10T04:40:22;5.03;;;3.40;;
54408;SDS011;40315;48.620;9.828;2022-11-10T04:43:07;6.10;;;3.95;;
54408;SDS011;40315;48.620;9.828;2022-11-10T04:45:53;5.55;;;3.55;;
54408;SDS011;40315;48.620;9.828;2022-11-10T04:48:39;4.68;;;3.58;;
54408;SDS011;40315;48.620;9.828;2022-11-10T04:51:27;5.82;;;4.00;;
54408;SDS011;40315;48.620;9.828;2022-11-10T04:54:13;5.50;;;4.07;;
54408;SDS011;40315;48.620;9.828;2022-11-10T04:56:59;8.00;;;3.60;;
54408;SDS011;40315;48.620;9.828;2022-11-10T04:59:44;6.15;;;3.85;;
54408;SDS011;40315;48.620;9.828;2022-11-10T05:02:30;5.05;;;3.45;;
54408;SDS011;40315;48.620;9.828;2022-11-10T05:05:16;6.07;;;3.60;;
54408;SDS011;40315;48.620;9.828;2022-11-10T05:08:03;3.72;;;3.15;;
54408;SDS011;40315;48.620;9.828;2022-11-10T05:10:49;7.50;;;3.83;;
54408;SDS011;40315;48.620;9.828;2022-11-10T05:13:35;6.72;;;3.40;;
54408;SDS011;40315;48.620;9.828;2022-11-10T05:16:20;3.83;;;2.95;;
54408;SDS011;40315;48.620;9.828;2022-11-10T05:19:06;6.32;;;3.83;;
54408;SDS011;40315;48.620;9.828;2022-11-10T05:21:52;8.30;;;4.45;;
54408;SDS011;40315;48.620;9.828;2022-11-10T05:24:39;8.88;;;3.55;;
54408;SDS011;40315;48.620;9.828;2022-11-10T05:27:24;5.90;;;3.97;;
54408;SDS011;40315;48.620;9.828;2022-11-10T05:30:10;7.18;;;3.95;;
54408;SDS011;40315;48.620;9.828;2022-11-10T05:32:56;5.78;;;3.38;;
54408;SDS011;40315;48.620;9.828;2022-11-10T05:35:41;5.03;;;3.13;;
54408;SDS011;40315;48.620;9.828;2022-11-10T05:38:27;7.40;;;3.85;;
54408;SDS011;40315;48.620;9.828;2022-11-10T05:41:14;4.57;;;3.40;;
54408;SDS011;40315;48.620;9.828;2022-11-10T05:44:00;7.57;;;3.10;;
54408;SDS011;40315;48.620;9.828;2022-11-10T05:46:45;5.82;;;3.40;;
54408;SDS011;40315;48.620;9.828;2022-11-10T05:49:31;6.15;;;3.05;;
54408;SDS011;40315;48.620;9.828;2022-11-10T05:52:17;5.68;;;3.17;;
54408;SDS011;40315;48.620;9.828;2022-11-10T05:55:03;4.55;;;3.40;;
54408;SDS011;40315;48.620;9.828;2022-11-10T05:57:50;4.85;;;2.70;;
54408;SDS011;40315;48.620;9.828;2022-11-10T06:00:37;7.13;;;3.42;;
54408;SDS011;40315;48.620;9.828;2022-11-10T06:03:22;6.85;;;3.17;;
54408;SDS011;40315;48.620;9.828;2022-11-10T06:06:08;5.00;;;3.00;;
54408;SDS011;40315;48.620;9.828;2022-11-10T06:08:54;4.68;;;3.13;;
54408;SDS011;40315;48.620;9.828;2022-11-10T06:11:41;4.80;;;3.28;;
54408;SDS011;40315;48.620;9.828;2022-11-10T06:14:28;8.55;;;4.03;;
54408;SDS011;40315;48.620;9.828;2022-11-10T06:17:14;11.90;;;6.20;;
54408;SDS011;40315;48.620;9.828;2022-11-10T06:19:59;7.80;;;5.05;;
54408;SDS011;40315;48.620;9.828;2022-11-10T06:22:55;5.68;;;4.57;;
54408;SDS011;40315;48.620;9.828;2022-11-10T06:25:43;8.77;;;4.25;;
54408;SDS011;40315;48.620;9.828;2022-11-10T06:28:29;5.35;;;3.90;;
54408;SDS011;40315;48.620;9.828;2022-11-10T06:31:16;5.53;;;4.35;;
54408;SDS011;40315;48.620;9.828;2022-11-10T06:34:01;5.97;;;3.83;;
54408;SDS011;40315;48.620;9.828;2022-11-10T06:36:47;5.70;;;3.70;;
54408;SDS011;40315;48.620;9.828;2022-11-10T06:39:32;5.93;;;3.60;;
54408;SDS011;40315;48.620;9.828;2022-11-10T06:42:18;7.13;;;4.35;;
54408;SDS011;40315;48.620;9.828;2022-11-10T06:45:04;8.32;;;5.82;;
54408;SDS011;40315;48.620;9.828;2022-11-10T06:47:58;7.18;;;5.05;;
54408;SDS011;40315;48.620;9.828;2022-11-10T06:50:45;7.85;;;5.35;;
54408;SDS011;40315;48.620;9.828;2022-11-10T06:53:30;11.27;;;6.68;;
54408;SDS011;40315;48.620;9.828;2022-11-10T06:56:16;8.00;;;5.93;;
54408;SDS011;40315;48.620;9.828;2022-11-10T06:59:01;8.75;;;5.90;;
54408;SDS011;40315;48.620;9.828;2022-11-10T07:01:47;7.15;;;5.43;;
54408;SDS011;40315;48.620;9.828;2022-11-10T07:04:34;5.93;;;4.97;;
54408;SDS011;40315;48.620;9.828;2022-11-10T07:07:19;7.22;;;4.63;;
54408;SDS011;40315;48.620;9.828;2022-11-10T07:10:08;6.50;;;4.82;;
54408;SDS011;40315;48.620;9.828;2022-11-10T07:12:57;6.93;;;4.85;;
54408;SDS011;40315;48.620;9.828;2022-11-10T07:15:43;5.88;;;4.47;;
54408;SDS011;40315;48.620;9.828;2022-11-10T07:18:28;6.97;;;3.90;;
54408;SDS011;40315;48.620;9.828;2022-11-10T07:21:15;9.18;;;4.20;;
54408;SDS011;40315;48.620;9.828;2022-11-10T07:24:00;5.53;;;3.97;;
54408;SDS011;40315;48.620;9.828;2022-11-10T07:26:48;7.28;;;3.63;;
54408;SDS011;40315;48.620;9.828;2022-11-10T07:29:41;5.40;;;4.22;;
54408;SDS011;40315;48.620;9.828;2022-11-10T07:32:27;6.70;;;4.35;;
54408;SDS011;40315;48.620;9.828;2022-11-10T07:35:12;5.80;;;3.95;;
54408;SDS011;40315;48.620;9.828;2022-11-10T07:38:00;4.75;;;4.32;;
54408;SDS011;40315;48.620;9.828;2022-11-10T07:40:49;6.40;;;4.72;;
54408;SDS011;40315;48.620;9.828;2022-11-10T07:43:36;6.15;;;5.15;;
54408;SDS011;40315;48.620;9.828;2022-11-10T07:46:21;7.03;;;5.10;;
54408;SDS011;40315;48.620;9.828;2022-11-10T07:49:07;8.52;;;5.00;;
54408;SDS011;40315;48.620;9.828;2022-11-10T07:51:53;8.10;;;4.70;;
54408;SDS011;40315;48.620;9.828;2022-11-10T07:54:40;7.80;;;4.82;;
54408;SDS011;40315;48.620;9.828;2022-11-10T07:57:25;8.48;;;5.30;;
54408;SDS011;40315;48.620;9.828;2022-11-10T08:00:11;6.88;;;5.55;;
54408;SDS011;40315;48.620;9.828;2022-11-10T08:03:02;12.50;;;6.40;;
54408;SDS011;40315;48.620;9.828;2022-11-10T08:05:48;11.00;;;7.00;;
54408;SDS011;40315;48.620;9.828;2022-11-10T08:08:33;11.35;;;6.68;;
54408;SDS011;40315;48.620;9.828;2022-11-10T08:11:20;8.95;;;5.88;;
54408;SDS011;40315;48.620;9.828;2022-11-10T08:14:08;7.55;;;5.50;;
54408;SDS011;40315;48.620;9.828;2022-11-10T08:16:55;7.05;;;4.90;;
54408;SDS011;40315;48.620;9.828;2022-11-10T08:19:43;8.20;;;5.38;;
54408;SDS011;40315;48.620;9.828;2022-11-10T08:22:28;8.43;;;5.80;;
54408;SDS011;40315;48.620;9.828;2022-11-10T08:25:14;9.77;;;5.93;;
54408;SDS011;40315;48.620;9.828;2022-11-10T08:28:02;9.43;;;5.60;;
54408;SDS011;40315;48.620;9.828;2022-11-10T08:31:01;10.27;;;7.03;;
54408;SDS011;40315;48.620;9.828;2022-11-10T08:33:47;7.38;;;6.28;;
54408;SDS011;40315;48.620;9.828;2022-11-10T08:36:33;7.72;;;6.10;;
54408;SDS011;40315;48.620;9.828;2022-11-10T08:39:20;7.60;;;5.57;;
54408;SDS011;40315;48.620;9.828;2022-11-10T08:42:05;7.05;;;5.10;;
54408;SDS011;40315;48.620;9.828;2022-11-10T08:44:52;9.63;;;5.38;;
54408;SDS011;40315;48.620;9.828;2022-11-10T08:47:37;6.57;;;4.93;;
54408;SDS011;40315;48.620;9.828;2022-11-10T08:50:23;7.22;;;4.95;;
54408;SDS011;40315;48.620;9.828;2022-11-10T08:53:09;6.90;;;5.28;;
54408;SDS011;40315;48.620;9.828;2022-11-10T08:55:57;6.45;;;4.50;;
54408;SDS011;40315;48.620;9.828;2022-11-10T08:58:43;6.57;;;4.50;;
54408;SDS011;40315;48.620;9.828;2022-11-10T09:01:30;8.43;;;4.60;;
54408;SDS011;40315;48.620;9.828;2022-11-10T09:04:15;6.82;;;4.13;;
54408;SDS011;40315;48.620;9.828;2022-11-10T09:07:01;6.45;;;4.35;;
54408;SDS011;40315;48.620;9.828;2022-11-10T09:09:46;5.80;;;3.88;;
54408;SDS011;40315;48.620;9.828;2022-11-10T09:12:32;6.30;;;3.65;;
54408;SDS011;40315;48.620;9.828;2022-11-10T09:15:18;5.95;;;3.85;;
54408;SDS011;40315;48.620;9.828;2022-11-10T09:18:05;3.88;;;3.40;;
54408;SDS011;40315;48.620;9.828;2022-11-10T09:20:51;6.45;;;4.47;;
54408;SDS011;40315;48.620;9.828;2022-11-10T09:26:27;7.55;;;4.82;;
54408;SDS011;40315;48.620;9.828;2022-11-10T09:29:13;6.78;;;3.90;;
54408;SDS011;40315;48.620;9.828;2022-11-10T09:31:58;8.15;;;4.10;;
54408;SDS011;40315;48.620;9.828;2022-11-10T09:34:45;5.47;;;4.63;;
54408;SDS011;40315;48.620;9.828;2022-11-10T09:37:31;6.00;;;5.00;;
54408;SDS011;40315;48.620;9.828;2022-11-10T09:40:18;5.75;;;4.68;;
54408;SDS011;40315;48.620;9.828;2022-11-10T09:43:07;6.60;;;3.88;;
54408;SDS011;40315;48.620;9.828;2022-11-10T09:46:02;4.53;;;3.58;;
54408;SDS011;40315;48.620;9.828;2022-11-10T09:48:55;7.05;;;4.15;;
54408;SDS011;40315;48.620;9.828;2022-11-10T09:51:51;6.55;;;3.40;;
54408;SDS011;40315;48.620;9.828;2022-11-10T09:54:39;3.85;;;3.25;;
54408;SDS011;40315;48.620;9.828;2022-11-10T09:57:28;5.32;;;2.60;;
54408;SDS011;40315;48.620;9.828;2022-11-10T10:00:14;3.92;;;2.63;;
54408;SDS011;40315;48.620;9.828;2022-11-10T10:03:02;4.32;;;3.03;;
54408;SDS011;40315;48.620;9.828;2022-11-10T10:06:00;7.68;;;3.45;;
54408;SDS011;40315;48.620;9.828;2022-11-10T10:08:57;7.82;;;3.40;;
54408;SDS011;40315;48.620;9.828;2022-11-10T10:11:48;7.60;;;4.88;;
54408;SDS011;40315;48.620;9.828;2022-11-10T10:14:45;7.10;;;2.83;;
54408;SDS011;40315;48.620;9.828;2022-11-10T10:17:41;5.68;;;2.55;;
54408;SDS011;40315;48.620;9.828;2022-11-10T10:20:38;4.95;;;2.20;;
54408;SDS011;40315;48.620;9.828;2022-11-10T10:23:32;2.47;;;1.88;;
54408;SDS011;40315;48.620;9.828;2022-11-10T10:26:23;6.22;;;2.63;;
54408;SDS011;40315;48.620;9.828;2022-11-10T10:29:13;5.75;;;2.45;;
54408;SDS011;40315;48.620;9.828;2022-11-10T10:32:01;5.18;;;2.75;;
54408;SDS011;40315;48.620;9.828;2022-11-10T10:34:48;5.20;;;2.38;;
54408;SDS011;40315;48.620;9.828;2022-11-10T10:37:35;4.35;;;2.08;;
54408;SDS011;40315;48.620;9.828;2022-11-10T10:40:27;4.13;;;2.13;;
54408;SDS011;40315;48.620;9.828;2022-11-10T10:43:14;5.82;;;2.92;;
54408;SDS011;40315;48.620;9.828;2022-11-10T10:46:05;4.28;;;3.00;;
54408;SDS011;40315;48.620;9.828;2022-11-10T10:49:05;3.85;;;2.17;;
54408;SDS011;40315;48.620;9.828;2022-11-10T10:52:00;5.60;;;1.90;;
54408;SDS011;40315;48.620;9.828;2022-11-10T10:54:49;2.63;;;1.80;;
54408;SDS011;40315;48.620;9.828;2022-11-10T10:57:48;3.83;;;1.60;;
54408;SDS011;40315;48.620;9.828;2022-11-10T11:00:42;5.47;;;1.40;;
54408;SDS011;40315;48.620;9.828;2022-11-10T11:03:29;4.13;;;1.38;;
54408;SDS011;40315;48.620;9.828;2022-11-10T11:06:22;4.97;;;1.45;;
54408;SDS011;40315;48.620;9.828;2022-11-10T11:09:15;6.95;;;1.67;;
54408;SDS011;40315;48.620;9.828;2022-11-10T11:12:04;2.13;;;1.25;;
54408;SDS011;40315;48.620;9.828;2022-11-10T11:14:51;4.05;;;1.40;;
54408;SDS011;40315;48.620;9.828;2022-11-10T11:17:56;5.93;;;1.45;;
54408;SDS011;40315;48.620;9.828;2022-11-10T11:20:45;2.85;;;1.50;;
54408;SDS011;40315;48.620;9.828;2022-11-10T11:23:51;4.18;;;1.40;;
54408;SDS011;40315;48.620;9.828;2022-11-10T11:26:47;3.10;;;0.90;;
54408;SDS011;40315;48.620;9.828;2022-11-10T11:29:45;2.97;;;1.30;;
54408;SDS011;40315;48.620;9.828;2022-11-10T11:36:14;4.22;;;1.10;;
54408;SDS011;40315;48.620;9.828;2022-11-10T11:39:07;2.47;;;0.88;;
54408;SDS011;40315;48.620;9.828;2022-11-10T11:42:06;4.18;;;0.98;;
54408;SDS011;40315;48.620;9.828;2022-11-10T11:45:06;2.35;;;1.75;;
54408;SDS011;40315;48.620;9.828;2022-11-10T11:48:08;3.55;;;1.23;;
54408;SDS011;40315;48.620;9.828;2022-11-10T11:51:05;2.10;;;1.13;;
54408;SDS011;40315;48.620;9.828;2022-11-10T11:54:05;3.85;;;1.00;;
54408;SDS011;40315;48.620;9.828;2022-11-10T11:57:14;2.20;;;0.82;;
54408;SDS011;40315;48.620;9.828;2022-11-10T12:00:06;2.65;;;0.82;;
54408;SDS011;40315;48.620;9.828;2022-11-10T12:06:28;4.95;;;1.30;;
54408;SDS011;40315;48.620;9.828;2022-11-10T12:09:25;2.30;;;1.48;;
54408;SDS011;40315;48.620;9.828;2022-11-10T12:12:18;2.55;;;0.90;;
54408;SDS011;40315;48.620;9.828;2022-11-10T12:15:16;3.35;;;0.98;;
54408;SDS011;40315;48.620;9.828;2022-11-10T12:18:11;3.50;;;1.33;;
54408;SDS011;40315;48.620;9.828;2022-11-10T12:21:07;3.58;;;1.30;;
54408;SDS011;40315;48.620;9.828;2022-11-10T12:24:14;2.05;;;0.80;;
54408;SDS011;40315;48.620;9.828;2022-11-10T12:27:27;2.40;;;0.95;;
54408;SDS011;40315;48.620;9.828;2022-11-10T12:30:17;2.22;;;0.82;;
54408;SDS011;40315;48.620;9.828;2022-11-10T12:33:03;2.97;;;1.15;;
54408;SDS011;40315;48.620;9.828;2022-11-10T12:35:58;2.15;;;0.73;;
54408;SDS011;40315;48.620;9.828;2022-11-10T12:38:51;2.25;;;0.93;;
54408;SDS011;40315;48.620;9.828;2022-11-10T12:41:42;4.25;;;2.22;;
54408;SDS011;40315;48.620;9.828;2022-11-10T12:44:33;2.00;;;0.90;;
54408;SDS011;40315;48.620;9.828;2022-11-10T12:47:21;4.20;;;1.00;;
54408;SDS011;40315;48.620;9.828;2022-11-10T12:53:22;3.28;;;0.88;;
54408;SDS011;40315;48.620;9.828;2022-11-10T12:56:11;2.90;;;0.82;;
54408;SDS011;40315;48.620;9.828;2022-11-10T12:59:26;3.60;;;2.45;;
54408;SDS011;40315;48.620;9.828;2022-11-10T13:02:17;3.30;;;1.00;;
54408;SDS011;40315;48.620;9.828;2022-11-10T13:05:09;2.38;;;1.17;;
54408;SDS011;40315;48.620;9.828;2022-11-10T13:08:12;3.15;;;1.15;;
54408;SDS011;40315;48.620;9.828;2022-11-10T13:11:22;2.95;;;1.30;;
54408;SDS011;40315;48.620;9.828;2022-11-10T13:14:21;2.22;;;0.90;;
54408;SDS011;40315;48.620;9.828;2022-11-10T13:17:10;3.90;;;0.95;;
54408;SDS011;40315;48.620;9.828;2022-11-10T13:20:45;2.08;;;0.70;;
54408;SDS011;40315;48.620;9.828;2022-11-10T13:23:56;3.13;;;1.10;;
54408;SDS011;40315;48.620;9.828;2022-11-10T13:27:03;3.50;;;1.00;;
54408;SDS011;40315;48.620;9.828;2022-11-10T13:29:55;3.95;;;1.00;;
54408;SDS011;40315;48.620;9.828;2022-11-10T13:32:43;3.78;;;0.90;;
54408;SDS011;40315;48.620;9.828;2022-11-10T13:38:38;2.72;;;1.10;;
54408;SDS011;40315;48.620;9.828;2022-11-10T13:41:25;3.75;;;1.33;;
54408;SDS011;40315;48.620;9.828;2022-11-10T13:44:21;2.33;;;0.93;;
54408;SDS011;40315;48.620;9.828;2022-11-10T13:47:18;3.72;;;1.15;;
54408;SDS011;40315;48.620;9.828;2022-11-10T13:50:28;1.90;;;0.95;;
54408;SDS011;40315;48.620;9.828;2022-11-10T13:53:29;4.15;;;1.30;;
54408;SDS011;40315;48.620;9.828;2022-11-10T13:56:24;2.63;;;1.00;;
54408;SDS011;40315;48.620;9.828;2022-11-10T13:59:21;2.78;;;1.02;;
54408;SDS011;40315;48.620;9.828;2022-11-10T14:08:53;1.65;;;0.82;;
54408;SDS011;40315;48.620;9.828;2022-11-10T14:11:44;3.08;;;0.90;;
54408;SDS011;40315;48.620;9.828;2022-11-10T14:14:34;3.58;;;0.80;;
54408;SDS011;40315;48.620;9.828;2022-11-10T14:17:30;1.67;;;0.98;;
54408;SDS011;40315;48.620;9.828;2022-11-10T14:20:19;1.40;;;0.68;;
54408;SDS011;40315;48.620;9.828;2022-11-10T14:23:09;2.55;;;0.90;;
54408;SDS011;40315;48.620;9.828;2022-11-10T14:26:04;1.92;;;1.00;;
54408;SDS011;40315;48.620;9.828;2022-11-10T14:28:51;2.47;;;0.80;;
54408;SDS011;40315;48.620;9.828;2022-11-10T14:31:36;2.35;;;1.05;;
54408;SDS011;40315;48.620;9.828;2022-11-10T14:34:22;2.13;;;0.80;;
54408;SDS011;40315;48.620;9.828;2022-11-10T14:37:12;2.03;;;1.00;;
54408;SDS011;40315;48.620;9.828;2022-11-10T14:40:02;1.92;;;0.80;;
54408;SDS011;40315;48.620;9.828;2022-11-10T14:42:55;1.88;;;0.90;;
54408;SDS011;40315;48.620;9.828;2022-11-10T14:45:48;1.70;;;0.80;;
54408;SDS011;40315;48.620;9.828;2022-11-10T14:48:35;1.83;;;0.73;;
54408;SDS011;40315;48.620;9.828;2022-11-10T14:51:21;3.58;;;0.90;;
54408;SDS011;40315;48.620;9.828;2022-11-10T14:54:08;3.45;;;1.25;;
54408;SDS011;40315;48.620;9.828;2022-11-10T14:56:58;5.43;;;2.15;;
54408;SDS011;40315;48.620;9.828;2022-11-10T14:59:44;7.00;;;3.42;;
54408;SDS011;40315;48.620;9.828;2022-11-10T15:02:30;4.45;;;2.72;;
54408;SDS011;40315;48.620;9.828;2022-11-10T15:05:16;4.03;;;2.50;;
54408;SDS011;40315;48.620;9.828;2022-11-10T15:08:02;5.00;;;1.73;;
54408;SDS011;40315;48.620;9.828;2022-11-10T15:10:58;7.38;;;1.77;;
54408;SDS011;40315;48.620;9.828;2022-11-10T15:13:45;2.85;;;1.20;;
54408;SDS011;40315;48.620;9.828;2022-11-10T15:16:31;2.83;;;1.08;;
54408;SDS011;40315;48.620;9.828;2022-11-10T15:19:20;1.73;;;0.88;;
54408;SDS011;40315;48.620;9.828;2022-11-10T15:22:12;2.88;;;1.13;;
54408;SDS011;40315;48.620;9.828;2022-11-10T15:25:06;3.00;;;0.80;;
54408;SDS011;40315;48.620;9.828;2022-11-10T15:27:55;1.88;;;0.68;;
54408;SDS011;40315;48.620;9.828;2022-11-10T15:30:49;2.25;;;0.77;;
54408;SDS011;40315;48.620;9.828;2022-11-10T15:33:36;3.20;;;0.90;;
54408;SDS011;40315;48.620;9.828;2022-11-10T15:36:27;2.47;;;1.00;;
54408;SDS011;40315;48.620;9.828;2022-11-10T15:39:16;2.78;;;0.90;;
54408;SDS011;40315;48.620;9.828;2022-11-10T15:42:12;1.77;;;0.70;;
54408;SDS011;40315;48.620;9.828;2022-11-10T15:44:59;3.55;;;1.08;;
54408;SDS011;40315;48.620;9.828;2022-11-10T15:47:46;3.85;;;1.60;;
54408;SDS011;40315;48.620;9.828;2022-11-10T15:50:32;2.45;;;1.30;;
54408;SDS011;40315;48.620;9.828;2022-11-10T15:53:19;3.90;;;1.60;;
54408;SDS011;40315;48.620;9.828;2022-11-10T15:56:11;2.22;;;1.17;;
54408;SDS011;40315;48.620;9.828;2022-11-10T15:58:59;4.07;;;1.70;;
54408;SDS011;40315;48.620;9.828;2022-11-10T16:01:45;3.45;;;1.58;;
54408;SDS011;40315;48.620;9.828;2022-11-10T16:04:32;3.42;;;1.65;;
54408;SDS011;40315;48.620;9.828;2022-11-10T16:07:18;3.85;;;1.58;;
54408;SDS011;40315;48.620;9.828;2022-11-10T16:10:03;4.32;;;1.63;;
54408;SDS011;40315;48.620;9.828;2022-11-10T16:12:49;5.10;;;1.75;;
54408;SDS011;40315;48.620;9.828;2022-11-10T16:15:37;3.00;;;1.73;;
54408;SDS011;40315;48.620;9.828;2022-11-10T16:18:26;3.22;;;1.77;;
54408;SDS011;40315;48.620;9.828;2022-11-10T16:21:15;4.15;;;2.30;;
54408;SDS011;40315;48.620;9.828;2022-11-10T16:24:02;4.25;;;3.35;;
54408;SDS011;40315;48.620;9.828;2022-11-10T16:26:50;7.90;;;5.45;;
54408;SDS011;40315;48.620;9.828;2022-11-10T16:29:36;9.23;;;6.03;;
54408;SDS011;40315;48.620;9.828;2022-11-10T16:32:21;7.35;;;3.90;;
54408;SDS011;40315;48.620;9.828;2022-11-10T16:35:10;6.72;;;3.80;;
54408;SDS011;40315;48.620;9.828;2022-11-10T16:37:59;6.15;;;3.45;;
54408;SDS011;40315;48.620;9.828;2022-11-10T16:40:44;7.10;;;3.70;;
54408;SDS011;40315;48.620;9.828;2022-11-10T16:43:33;6.57;;;4.05;;
54408;SDS011;40315;48.620;9.828;2022-11-10T16:46:19;4.88;;;2.83;;
54408;SDS011;40315;48.620;9.828;2022-11-10T16:52:12;3.15;;;2.85;;
54408;SDS011;40315;48.620;9.828;2022-11-10T16:55:01;3.58;;;3.05;;
54408;SDS011;40315;48.620;9.828;2022-11-10T16:57:46;10.30;;;6.85;;
54408;SDS011;40315;48.620;9.828;2022-11-10T17:00:32;9.90;;;6.57;;
54408;SDS011;40315;48.620;9.828;2022-11-10T17:03:19;9.70;;;6.45;;
54408;SDS011;40315;48.620;9.828;2022-11-10T17:06:13;12.82;;;6.93;;
54408;SDS011;40315;48.620;9.828;2022-11-10T17:09:00;9.00;;;6.63;;
54408;SDS011;40315;48.620;9.828;2022-11-10T17:11:52;9.75;;;5.80;;
54408;SDS011;40315;48.620;9.828;2022-11-10T17:14:37;8.48;;;5.65;;
54408;SDS011;40315;48.620;9.828;2022-11-10T17:17:25;6.15;;;5.00;;
54408;SDS011;40315;48.620;9.828;2022-11-10T17:20:26;6.38;;;3.90;;
54408;SDS011;40315;48.620;9.828;2022-11-10T17:23:17;5.05;;;3.13;;
54408;SDS011;40315;48.620;9.828;2022-11-10T17:26:06;6.30;;;3.67;;
54408;SDS011;40315;48.620;9.828;2022-11-10T17:28:54;5.82;;;3.50;;
54408;SDS011;40315;48.620;9.828;2022-11-10T17:31:39;5.95;;;3.28;;